Time;durP1;ratioP1;P1;durP2;ratioP2;P2;SDS_P1;SDS_P2;PMS_P1;PMS_P2;Temp;Humidity;BMP_temperature;BMP_pressure;BME280_temperature;BME280_humidity;BME280_pressure;Samples;Min_cycle;Max_cycle;Signal;HPM_P1;HPM_P2
2022/11/17 00:01:36;;;;;;;9.52;3.35;;;11.00;99.90;;;;;;4936303;28;20098;-68
2022/11/17 00:04:02;;;;;;;9.68;2.40;;;11.00;99.90;;;;;;4944594;28;20039;-69
2022/11/17 00:06:27;;;;;;;13.60;2.80;;;11.00;99.90;;;;;;4945499;28;20031;-68
2022/11/17 00:08:53;;;;;;;8.77;2.80;;;11.00;99.90;;;;;;4941172;28;20823;-68
2022/11/17 00:11:19;;;;;;;11.23;2.90;;;11.00;99.90;;;;;;4944773;28;20082;-68
2022/11/17 00:16:28;;;;;;;6.30;2.42;;;11.00;99.90;;;;;;4932786;28;20168;-67
2022/11/17 00:21:38;;;;;;;8.00;2.53;;;11.00;99.90;;;;;;4939311;28;20074;-68
2022/11/17 00:24:04;;;;;;;7.10;2.20;;;11.00;99.90;;;;;;4945605;28;20410;-68
2022/11/17 00:26:32;;;;;;;8.38;2.75;;;11.00;99.90;;;;;;4944230;28;20042;-68
2022/11/17 00:29:05;;;;;;;7.10;2.20;;;11.00;99.90;;;;;;4946532;28;20691;-70
2022/11/17 00:34:20;;;;;;;5.40;1.92;;;11.00;99.90;;;;;;4944555;28;20470;-70
2022/11/17 00:36:50;;;;;;;6.50;1.92;;;11.10;99.90;;;;;;4948577;28;20039;-70
2022/11/17 00:39:19;;;;;;;7.40;1.95;;;11.10;99.90;;;;;;4938615;28;20047;-69
2022/11/17 00:41:44;;;;;;;5.68;1.73;;;11.00;99.90;;;;;;4941102;28;20634;-69
2022/11/17 00:44:11;;;;;;;5.95;1.83;;;11.00;99.90;;;;;;4938932;28;20097;-69
2022/11/17 00:46:37;;;;;;;7.15;1.63;;;11.00;99.90;;;;;;4932875;28;20043;-69
2022/11/17 00:49:04;;;;;;;8.55;2.03;;;11.00;99.90;;;;;;4939411;28;20046;-70
2022/11/17 00:51:29;;;;;;;6.95;1.90;;;11.00;99.90;;;;;;4950855;28;20047;-70
2022/11/17 00:53:55;;;;;;;5.97;2.08;;;11.00;99.90;;;;;;4935831;28;20126;-70
2022/11/17 00:56:21;;;;;;;7.80;1.85;;;11.00;99.90;;;;;;4940701;28;20047;-69
2022/11/17 00:58:47;;;;;;;5.03;1.58;;;11.00;99.90;;;;;;4936925;28;20110;-70
2022/11/17 01:01:13;;;;;;;6.95;1.80;;;11.10;99.90;;;;;;4940760;28;20531;-70
2022/11/17 01:03:38;;;;;;;6.47;2.05;;;11.10;99.90;;;;;;4940400;28;20118;-69
2022/11/17 01:06:13;;;;;;;5.18;1.40;;;11.00;99.90;;;;;;4957390;28;20204;-69
2022/11/17 01:08:39;;;;;;;9.98;1.65;;;11.00;99.90;;;;;;4933628;28;20039;-71
2022/11/17 01:11:13;;;;;;;6.05;1.80;;;11.00;99.90;;;;;;4936995;28;20765;-70
2022/11/17 01:13:43;;;;;;;3.83;1.50;;;11.00;99.90;;;;;;4931461;28;20032;-70
2022/11/17 01:16:22;;;;;;;5.63;1.77;;;11.00;99.90;;;;;;4940435;28;20035;-70
2022/11/17 01:18:49;;;;;;;4.30;1.33;;;10.90;99.90;;;;;;4936606;28;20035;-69
2022/11/17 01:21:21;;;;;;;6.88;1.70;;;10.90;99.90;;;;;;4939091;28;20042;-69
2022/11/17 01:23:49;;;;;;;4.05;1.50;;;10.90;99.90;;;;;;4941100;28;20582;-69
2022/11/17 01:26:20;;;;;;;3.53;1.60;;;11.00;99.90;;;;;;4943017;28;20039;-66
2022/11/17 01:28:46;;;;;;;6.55;1.85;;;10.90;99.90;;;;;;4937583;28;20166;-67
2022/11/17 01:31:18;;;;;;;7.20;1.63;;;10.90;99.90;;;;;;4936233;28;20035;-67
2022/11/17 01:33:44;;;;;;;6.18;2.00;;;10.90;99.90;;;;;;4953810;28;20407;-68
2022/11/17 01:36:17;;;;;;;4.50;1.58;;;10.80;99.90;;;;;;4940491;28;20040;-69
2022/11/17 01:38:43;;;;;;;;;;;10.80;99.90;;;;;;4942825;28;20122;-68
2022/11/17 01:41:14;;;;;;;5.15;1.50;;;10.80;99.90;;;;;;4939391;28;20013;-68
2022/11/17 01:43:45;;;;;;;4.25;1.60;;;10.70;99.90;;;;;;4940588;28;20097;-68
2022/11/17 01:46:31;;;;;;;5.55;1.52;;;10.70;99.90;;;;;;4945938;28;20565;-69
2022/11/17 01:49:24;;;;;;;4.40;1.73;;;10.70;99.90;;;;;;4930725;28;20067;-68
2022/11/17 01:51:55;;;;;;;5.95;1.38;;;10.80;99.90;;;;;;4933169;28;20035;-68
2022/11/17 01:54:24;;;;;;;6.63;1.63;;;10.70;99.90;;;;;;4931721;28;20046;-68
2022/11/17 01:56:55;;;;;;;7.70;1.80;;;10.70;99.90;;;;;;4944655;28;20035;-67
2022/11/17 01:59:35;;;;;;;5.50;1.45;;;10.80;99.90;;;;;;4941884;28;21931;-66
2022/11/17 02:02:00;;;;;;;6.35;1.60;;;10.80;99.90;;;;;;4938652;28;20043;-67
2022/11/17 02:04:33;;;;;;;5.28;1.65;;;10.80;99.90;;;;;;4960178;28;20038;-66
2022/11/17 02:07:21;;;;;;;4.10;1.13;;;10.80;99.90;;;;;;4953838;28;22171;-69
2022/11/17 02:09:47;;;;;;;6.82;1.40;;;10.90;99.90;;;;;;4960748;28;20498;-69
2022/11/17 02:12:14;;;;;;;5.38;1.80;;;10.90;99.90;;;;;;4965869;28;20027;-68
2022/11/17 02:14:40;;;;;;;9.93;1.80;;;10.80;99.90;;;;;;4958139;28;20517;-68
2022/11/17 02:17:07;;;;;;;2.80;1.27;;;10.80;99.90;;;;;;4959199;28;20042;-68
2022/11/17 02:19:38;;;;;;;6.53;1.50;;;10.80;99.90;;;;;;4960053;28;20035;-68
2022/11/17 02:22:19;;;;;;;4.93;1.77;;;10.80;99.90;;;;;;4961915;28;20046;-67
2022/11/17 02:24:53;;;;;;;5.25;1.45;;;10.80;99.90;;;;;;4961680;28;20551;-67
2022/11/17 02:27:34;;;;;;;5.35;1.60;;;10.90;99.90;;;;;;4971457;28;20035;-67
2022/11/17 02:30:06;;;;;;;5.45;1.58;;;10.90;99.90;;;;;;4963486;28;20668;-67
2022/11/17 02:32:51;;;;;;;7.45;1.67;;;10.90;99.90;;;;;;4963805;28;20042;-67
2022/11/17 02:35:37;;;;;;;4.13;1.55;;;10.80;99.90;;;;;;4939793;28;20122;-67
2022/11/17 02:38:14;;;;;;;6.35;1.77;;;10.90;99.90;;;;;;4932186;28;20043;-67
2022/11/17 02:40:48;;;;;;;6.60;1.63;;;10.80;99.90;;;;;;4940074;28;20035;-67
2022/11/17 02:46:22;;;;;;;5.85;1.88;;;10.80;99.90;;;;;;4944580;28;20062;-67
2022/11/17 02:48:58;;;;;;;5.10;1.20;;;10.80;99.90;;;;;;4945231;28;20087;-68
2022/11/17 02:51:24;;;;;;;5.80;1.50;;;10.80;99.90;;;;;;4958083;28;20109;-68
2022/11/17 02:53:53;;;;;;;5.28;1.60;;;10.80;99.90;;;;;;4948138;28;20224;-68
2022/11/17 02:56:19;;;;;;;5.28;1.58;;;10.80;99.90;;;;;;4940296;28;20049;-68
2022/11/17 02:58:48;;;;;;;7.13;1.55;;;10.80;99.90;;;;;;4942423;28;20067;-67
2022/11/17 03:01:52;;;;;;;6.05;1.85;;;10.70;99.90;;;;;;4936518;28;20126;-67
2022/11/17 03:04:43;;;;;;;6.30;1.48;;;10.80;99.90;;;;;;4942054;28;20093;-67
2022/11/17 03:07:30;;;;;;;3.42;1.30;;;10.80;99.90;;;;;;4932798;28;20071;-68
2022/11/17 03:10:17;;;;;;;6.30;2.05;;;10.70;99.90;;;;;;4938447;28;20067;-69
2022/11/17 03:12:49;;;;;;;5.82;1.42;;;10.80;99.90;;;;;;4940100;28;20139;-68
2022/11/17 03:15:40;;;;;;;5.50;1.42;;;10.80;99.90;;;;;;4939954;29;20027;-67
2022/11/17 03:18:24;;;;;;;2.90;1.30;;;10.80;99.90;;;;;;4939540;28;20101;-68
2022/11/17 03:20:57;;;;;;;5.50;1.77;;;10.70;99.90;;;;;;4937396;28;20502;-69
2022/11/17 03:23:35;;;;;;;4.43;1.77;;;10.70;99.90;;;;;;4942266;28;20032;-69
2022/11/17 03:26:07;;;;;;;5.03;1.65;;;10.70;99.90;;;;;;4941496;28;20722;-68
2022/11/17 03:28:33;;;;;;;5.45;1.75;;;10.70;99.90;;;;;;4954831;28;20051;-69
2022/11/17 03:31:03;;;;;;;3.95;1.55;;;10.70;99.90;;;;;;4946850;28;20031;-68
2022/11/17 03:33:30;;;;;;;4.35;1.80;;;10.70;99.90;;;;;;4946211;28;20043;-68
2022/11/17 03:36:07;;;;;;;3.47;1.50;;;10.70;99.90;;;;;;4954215;28;20039;-68
2022/11/17 03:38:39;;;;;;;4.78;1.85;;;10.70;99.90;;;;;;4964686;28;20363;-68
2022/11/17 03:41:08;;;;;;;3.38;1.70;;;10.70;99.90;;;;;;4938354;28;20035;-67
2022/11/17 03:43:35;;;;;;;4.65;1.90;;;10.60;99.90;;;;;;4938570;28;20129;-67
2022/11/17 03:46:08;;;;;;;4.45;1.70;;;10.60;99.90;;;;;;4950478;28;20158;-67
2022/11/17 03:48:42;;;;;;;5.97;2.03;;;10.60;99.90;;;;;;4962809;28;20050;-67
2022/11/17 03:51:14;;;;;;;3.05;1.60;;;10.60;99.90;;;;;;4959321;28;20525;-67
2022/11/17 03:53:40;;;;;;;6.43;2.05;;;10.60;99.90;;;;;;4947771;28;20054;-67
2022/11/17 03:56:29;;;;;;;6.22;2.13;;;10.70;99.90;;;;;;4943645;28;20038;-67
2022/11/17 03:59:15;;;;;;;6.07;1.98;;;10.70;99.90;;;;;;4941692;28;20646;-67
2022/11/17 04:01:41;;;;;;;5.55;1.80;;;10.70;99.90;;;;;;4957622;28;20043;-67
2022/11/17 04:04:11;;;;;;;5.18;1.70;;;10.70;99.90;;;;;;4939194;28;20067;-67
2022/11/17 04:06:37;;;;;;;5.18;1.90;;;10.70;99.90;;;;;;4944556;28;20066;-67
2022/11/17 04:09:02;;;;;;;3.45;1.55;;;10.70;99.90;;;;;;4943172;28;20066;-67
2022/11/17 04:16:56;;;;;;;2.47;1.38;;;10.70;99.90;;;;;;4945095;28;20688;-67
2022/11/17 04:19:22;;;;;;;6.10;1.30;;;10.70;99.90;;;;;;4948457;28;20134;-67
2022/11/17 04:21:47;;;;;;;7.10;1.58;;;10.60;99.90;;;;;;4947299;28;20083;-67
2022/11/17 04:24:13;;;;;;;3.03;1.20;;;10.70;99.90;;;;;;4943936;28;20066;-67
2022/11/17 04:29:22;;;;;;;2.42;1.35;;;10.60;99.90;;;;;;4934888;28;20045;-65
2022/11/17 04:31:48;;;;;;;4.47;1.30;;;10.60;99.90;;;;;;4935493;28;20782;-67
2022/11/17 04:34:14;;;;;;;2.13;1.13;;;10.60;99.90;;;;;;4957917;28;20139;-67
2022/11/17 04:36:43;;;;;;;4.00;1.08;;;10.60;99.90;;;;;;4937579;28;20093;-67
2022/11/17 04:39:11;;;;;;;2.72;1.00;;;10.60;99.90;;;;;;4943139;28;20035;-67
2022/11/17 04:44:23;;;;;;;2.40;1.05;;;10.50;99.90;;;;;;4943080;28;20359;-67
2022/11/17 04:46:49;;;;;;;2.92;1.20;;;10.60;99.90;;;;;;4946491;28;20039;-66
2022/11/17 04:49:17;;;;;;;5.60;1.63;;;10.60;99.90;;;;;;4938852;28;20068;-67
2022/11/17 04:51:43;;;;;;;2.65;1.00;;;10.60;99.90;;;;;;4942485;28;20411;-67
2022/11/17 04:54:11;;;;;;;3.20;1.33;;;10.60;99.90;;;;;;4951420;28;20149;-67
2022/11/17 04:56:37;;;;;;;3.03;1.20;;;10.70;99.90;;;;;;4944316;28;20110;-67
2022/11/17 04:59:03;;;;;;;5.72;1.20;;;10.70;99.90;;;;;;4939779;28;20035;-67
2022/11/17 05:01:29;;;;;;;3.28;1.30;;;10.60;99.90;;;;;;4942971;28;20090;-67
2022/11/17 05:04:03;;;;;;;2.33;0.90;;;10.70;99.90;;;;;;4943524;28;20031;-67
2022/11/17 05:06:32;;;;;;;4.07;1.02;;;10.70;99.90;;;;;;4935570;28;20051;-67
2022/11/17 05:09:03;;;;;;;5.15;0.90;;;10.80;99.90;;;;;;4937564;28;20050;-67
2022/11/17 05:14:16;;;;;;;2.97;1.10;;;10.80;99.90;;;;;;4933445;28;20047;-68
2022/11/17 05:19:28;;;;;;;2.80;1.20;;;10.80;99.90;;;;;;4945571;28;20808;-69
2022/11/17 05:21:54;;;;;;;4.38;0.95;;;10.80;99.90;;;;;;4936115;28;20418;-69
2022/11/17 05:24:20;;;;;;;5.65;1.10;;;10.80;99.90;;;;;;4939437;28;20027;-68
2022/11/17 05:26:47;;;;;;;3.28;1.50;;;10.80;99.90;;;;;;4936416;28;20388;-68
2022/11/17 05:29:15;;;;;;;5.28;1.40;;;10.80;99.90;;;;;;4932402;28;20114;-68
2022/11/17 05:31:42;;;;;;;5.32;1.10;;;10.70;99.90;;;;;;4934537;28;20817;-68
2022/11/17 05:34:11;;;;;;;4.20;1.73;;;10.70;99.90;;;;;;4936470;28;21438;-69
2022/11/17 05:36:37;;;;;;;3.50;1.55;;;10.70;99.90;;;;;;4946581;28;20049;-68
2022/11/17 05:39:04;;;;;;;5.65;1.58;;;10.80;99.90;;;;;;4936007;28;20134;-69
2022/11/17 05:41:29;;;;;;;4.97;1.60;;;10.80;99.90;;;;;;4940724;28;20097;-68
2022/11/17 05:43:56;;;;;;;3.38;1.50;;;10.80;99.90;;;;;;4936213;28;20052;-68
2022/11/17 05:46:22;;;;;;;3.80;1.50;;;10.80;99.90;;;;;;4941483;28;20043;-69
2022/11/17 05:48:49;;;;;;;5.82;1.50;;;10.70;99.90;;;;;;4941104;28;20047;-68
2022/11/17 05:51:16;;;;;;;5.90;1.65;;;10.70;99.90;;;;;;4939952;28;20637;-68
2022/11/17 05:53:42;;;;;;;3.58;1.55;;;10.80;99.90;;;;;;4968325;28;20401;-68
2022/11/17 05:56:29;;;;;;;6.80;1.98;;;10.70;99.90;;;;;;4953423;28;20035;-68
2022/11/17 05:59:00;;;;;;;4.22;1.50;;;10.80;99.90;;;;;;4961160;28;20219;-68
2022/11/17 06:01:27;;;;;;;5.47;1.60;;;10.70;99.90;;;;;;4958425;28;20046;-68
2022/11/17 06:03:58;;;;;;;4.10;1.67;;;10.70;99.90;;;;;;4958011;28;20050;-68
2022/11/17 06:06:24;;;;;;;4.57;1.30;;;10.60;99.90;;;;;;4956586;28;20046;-67
2022/11/17 06:08:49;;;;;;;3.30;1.58;;;10.70;99.90;;;;;;4953012;28;20106;-68
2022/11/17 06:11:17;;;;;;;7.85;1.90;;;10.70;99.90;;;;;;4977766;28;20066;-68
2022/11/17 06:13:43;;;;;;;6.65;1.75;;;10.80;99.90;;;;;;4961342;28;20529;-68
2022/11/17 06:16:12;;;;;;;6.20;1.85;;;10.80;99.90;;;;;;4958042;28;20066;-69
2022/11/17 06:18:45;;;;;;;4.32;2.08;;;10.80;99.90;;;;;;4960631;28;20487;-66
2022/11/17 06:21:14;;;;;;;4.65;1.90;;;10.70;99.90;;;;;;4966403;28;20053;-67
2022/11/17 06:23:40;;;;;;;4.43;1.90;;;10.80;99.90;;;;;;4960559;28;20778;-67
2022/11/17 06:26:08;;;;;;;3.22;1.65;;;10.80;99.90;;;;;;4960799;28;20051;-67
2022/11/17 06:28:37;;;;;;;6.35;2.15;;;10.90;99.90;;;;;;4970869;28;20512;-67
2022/11/17 06:31:04;;;;;;;5.25;1.77;;;10.80;99.90;;;;;;4961153;28;20763;-67
2022/11/17 06:33:31;;;;;;;4.30;1.60;;;10.80;99.90;;;;;;4946673;28;20059;-67
2022/11/17 06:35:59;;;;;;;6.07;1.90;;;10.80;99.90;;;;;;4942020;28;20074;-67
2022/11/17 06:38:25;;;;;;;2.85;1.40;;;10.80;99.90;;;;;;4941799;28;20612;-66
2022/11/17 06:40:51;;;;;;;7.43;2.05;;;10.80;99.90;;;;;;4939693;28;20138;-66
2022/11/17 06:43:17;;;;;;;6.43;1.60;;;10.80;99.90;;;;;;4942230;28;20054;-66
2022/11/17 06:45:44;;;;;;;4.07;1.33;;;10.80;99.90;;;;;;4941789;28;20171;-66
2022/11/17 06:48:13;;;;;;;6.20;1.73;;;10.70;99.90;;;;;;4938151;28;20039;-66
2022/11/17 06:50:39;;;;;;;6.80;1.67;;;10.80;99.90;;;;;;4945339;28;20094;-66
2022/11/17 06:53:07;;;;;;;5.00;1.58;;;10.80;99.90;;;;;;4938984;28;20422;-67
2022/11/17 06:55:34;;;;;;;6.07;1.60;;;10.80;99.90;;;;;;4923489;29;20047;-66
2022/11/17 06:58:01;;;;;;;5.13;1.92;;;10.80;99.90;;;;;;4922997;28;20468;-66
2022/11/17 07:00:28;;;;;;;4.10;1.55;;;10.80;99.90;;;;;;4921754;28;20139;-66
2022/11/17 07:03:08;;;;;;;3.58;1.40;;;10.90;99.90;;;;;;4925540;28;20043;-66
2022/11/17 07:05:37;;;;;;;3.45;1.40;;;10.80;99.90;;;;;;4929358;28;20475;-64
2022/11/17 07:08:05;;;;;;;3.42;1.20;;;10.80;99.90;;;;;;4931659;28;20035;-64
2022/11/17 07:10:31;;;;;;;5.45;1.67;;;10.90;99.90;;;;;;4919021;28;20110;-64
2022/11/17 07:12:57;;;;;;;4.22;1.40;;;10.90;99.90;;;;;;4927680;28;20131;-64
2022/11/17 07:15:24;;;;;;;4.75;1.30;;;10.90;99.90;;;;;;4919481;28;20166;-64
2022/11/17 07:17:49;;;;;;;6.25;1.60;;;11.00;99.90;;;;;;4918139;29;20040;-64
2022/11/17 07:20:16;;;;;;;5.18;1.40;;;10.90;99.90;;;;;;4921711;29;20689;-64
2022/11/17 07:22:41;;;;;;;3.80;1.30;;;10.90;99.90;;;;;;4917667;29;20048;-64
2022/11/17 07:25:08;;;;;;;2.78;1.35;;;10.90;99.90;;;;;;4917404;29;20066;-64
2022/11/17 07:27:34;;;;;;;5.07;1.48;;;10.90;99.90;;;;;;4931635;28;20048;-65
2022/11/17 07:29:59;;;;;;;2.92;1.20;;;10.90;99.90;;;;;;4919236;29;20037;-65
2022/11/17 07:32:25;;;;;;;2.97;1.20;;;10.90;99.90;;;;;;4944774;28;20109;-65
2022/11/17 07:34:51;;;;;;;4.85;1.13;;;10.90;99.90;;;;;;4965579;28;20121;-65
2022/11/17 07:37:17;;;;;;;4.65;1.48;;;10.90;99.90;;;;;;4966095;28;20050;-65
2022/11/17 07:39:42;;;;;;;4.15;1.50;;;10.80;99.90;;;;;;4960243;28;20071;-65
2022/11/17 07:42:08;;;;;;;5.50;1.63;;;10.90;99.90;;;;;;4968203;28;20126;-65
2022/11/17 07:44:34;;;;;;;4.40;1.23;;;11.00;99.90;;;;;;4967859;28;20073;-65
2022/11/17 07:47:00;;;;;;;4.22;1.40;;;10.80;99.90;;;;;;4964650;28;20030;-66
2022/11/17 07:49:26;;;;;;;5.40;1.48;;;10.90;99.90;;;;;;4960837;28;20039;-65
2022/11/17 07:51:52;;;;;;;4.13;1.23;;;10.80;99.90;;;;;;4965152;28;20043;-65
2022/11/17 07:54:17;;;;;;;4.10;1.15;;;10.80;99.90;;;;;;4966404;28;20619;-65
2022/11/17 07:56:43;;;;;;;3.08;0.80;;;10.80;99.90;;;;;;4969431;28;20056;-65
2022/11/17 07:59:09;;;;;;;4.28;0.90;;;10.90;99.90;;;;;;4960644;28;20042;-65
2022/11/17 08:01:34;;;;;;;5.53;1.00;;;11.00;99.90;;;;;;4960760;28;20039;-65
2022/11/17 08:04:00;;;;;;;5.70;1.00;;;11.00;99.90;;;;;;4963150;28;20031;-65
2022/11/17 08:06:26;;;;;;;6.68;1.90;;;10.90;99.90;;;;;;4962421;28;20516;-65
2022/11/17 08:08:52;;;;;;;5.65;1.25;;;10.90;99.90;;;;;;4959836;28;20077;-65
2022/11/17 08:11:18;;;;;;;1.73;0.63;;;10.90;99.90;;;;;;4957868;28;20042;-65
2022/11/17 08:13:44;;;;;;;3.97;0.52;;;10.90;99.90;;;;;;4961817;28;20031;-65
2022/11/17 08:16:11;;;;;;;2.40;0.70;;;10.90;99.90;;;;;;4961775;28;20035;-66
2022/11/17 08:18:37;;;;;;;1.48;0.80;;;10.90;99.90;;;;;;4965333;28;20561;-66
2022/11/17 08:21:04;;;;;;;3.47;0.93;;;10.90;99.90;;;;;;4967330;28;20043;-66
2022/11/17 08:23:30;;;;;;;4.65;1.00;;;10.90;99.90;;;;;;4968199;28;20047;-66
2022/11/17 08:25:56;;;;;;;4.28;0.80;;;10.90;99.90;;;;;;4961095;28;20038;-65
2022/11/17 08:28:22;;;;;;;4.40;1.20;;;10.80;99.90;;;;;;4964243;28;20669;-65
2022/11/17 08:30:47;;;;;;;4.25;0.80;;;10.80;99.90;;;;;;4946549;28;20098;-65
2022/11/17 08:33:13;;;;;;;4.15;0.80;;;10.70;99.90;;;;;;4969250;28;20041;-65
2022/11/17 08:35:39;;;;;;;4.25;0.73;;;10.80;99.90;;;;;;4962510;28;20137;-65
2022/11/17 08:38:04;;;;;;;3.88;0.68;;;10.70;99.90;;;;;;4945882;28;20037;-66
2022/11/17 08:40:30;;;;;;;4.03;0.88;;;10.60;99.90;;;;;;4962342;28;20258;-66
2022/11/17 08:42:58;;;;;;;3.72;1.00;;;10.60;99.90;;;;;;4967274;28;20121;-66
2022/11/17 08:45:24;;;;;;;3.40;0.75;;;10.60;99.90;;;;;;4964235;28;20681;-65
2022/11/17 08:47:49;;;;;;;2.50;0.73;;;10.70;99.90;;;;;;4962015;28;20694;-65
2022/11/17 08:50:16;;;;;;;4.05;0.70;;;10.60;99.90;;;;;;4960465;28;20061;-65
2022/11/17 08:52:43;;;;;;;2.58;0.82;;;10.70;99.90;;;;;;4970127;28;20412;-65
2022/11/17 08:55:09;;;;;;;2.33;0.82;;;10.70;99.90;;;;;;4956678;28;20165;-65
2022/11/17 08:57:35;;;;;;;5.03;0.88;;;10.80;99.90;;;;;;4957013;28;20122;-64
2022/11/17 09:00:00;;;;;;;3.35;1.08;;;10.90;99.90;;;;;;4966293;28;20680;-64
2022/11/17 09:02:26;;;;;;;1.67;0.70;;;10.80;99.90;;;;;;4964501;28;20491;-64
2022/11/17 09:04:52;;;;;;;2.60;0.80;;;10.80;99.90;;;;;;4962547;28;20075;-64
2022/11/17 09:07:18;;;;;;;3.90;1.30;;;10.80;99.90;;;;;;4962208;28;20042;-64
2022/11/17 09:09:45;;;;;;;6.45;1.00;;;10.80;99.90;;;;;;4942755;28;20125;-64
2022/11/17 09:12:11;;;;;;;3.70;0.80;;;10.80;99.90;;;;;;4963881;28;20090;-64
2022/11/17 09:14:36;;;;;;;6.13;0.80;;;10.90;99.90;;;;;;4968442;28;20039;-65
2022/11/17 09:17:02;;;;;;;2.67;0.80;;;11.00;99.90;;;;;;4961049;28;20761;-65
2022/11/17 09:19:28;;;;;;;1.80;0.70;;;11.00;99.90;;;;;;4955999;28;20134;-64
2022/11/17 09:21:53;;;;;;;3.22;0.90;;;11.10;99.90;;;;;;4960041;28;20209;-64
2022/11/17 09:24:19;;;;;;;4.18;0.60;;;11.00;99.90;;;;;;4964210;28;20039;-64
2022/11/17 09:26:45;;;;;;;3.85;0.90;;;11.10;99.90;;;;;;4968354;28;20575;-64
2022/11/17 09:29:10;;;;;;;2.53;0.88;;;11.00;99.90;;;;;;4964877;28;20038;-64
2022/11/17 09:31:36;;;;;;;4.63;1.05;;;11.10;99.90;;;;;;4944149;28;20043;-64
2022/11/17 09:34:02;;;;;;;5.43;0.80;;;11.10;99.90;;;;;;4964013;28;20053;-64
2022/11/17 09:36:28;;;;;;;3.63;0.90;;;11.20;99.90;;;;;;4960648;28;20692;-65
2022/11/17 09:38:53;;;;;;;3.90;1.13;;;11.20;99.90;;;;;;4959188;28;20043;-65
2022/11/17 09:41:25;;;;;;;2.92;0.65;;;11.20;99.90;;;;;;4957801;28;20030;-65
2022/11/17 09:44:05;;;;;;;1.98;0.60;;;11.20;99.90;;;;;;4964503;28;20276;-64
2022/11/17 09:46:48;;;;;;;2.92;0.73;;;11.30;99.90;;;;;;4945676;28;20101;-64
2022/11/17 09:49:51;;;;;;;2.72;0.70;;;11.30;99.90;;;;;;4943237;28;20046;-64
2022/11/17 09:52:37;;;;;;;3.70;0.80;;;11.40;99.90;;;;;;4946662;28;20749;-64
2022/11/17 09:55:23;;;;;;;3.72;0.98;;;11.40;99.90;;;;;;4945991;28;20035;-65
2022/11/17 09:58:02;;;;;;;3.53;0.65;;;11.50;99.90;;;;;;4947605;28;20039;-64
2022/11/17 10:00:30;;;;;;;3.55;0.80;;;11.60;99.90;;;;;;4939372;28;20035;-65
2022/11/17 10:02:56;;;;;;;3.05;0.80;;;11.50;99.90;;;;;;4943181;28;20510;-64
2022/11/17 10:05:29;;;;;;;3.22;1.50;;;11.60;99.90;;;;;;4949972;28;20035;-64
2022/11/17 10:08:02;;;;;;;2.75;1.20;;;11.60;99.90;;;;;;4944839;28;20035;-65
2022/11/17 10:10:42;;;;;;;3.35;0.60;;;11.70;99.90;;;;;;4964115;28;20118;-64
2022/11/17 10:13:22;;;;;;;3.88;0.70;;;11.70;99.90;;;;;;4960817;28;20075;-65
2022/11/17 10:15:52;;;;;;;2.90;0.70;;;11.70;99.90;;;;;;4953448;28;20038;-65
2022/11/17 10:18:18;;;;;;;4.13;0.65;;;11.70;99.90;;;;;;4961412;28;20030;-64
2022/11/17 10:20:44;;;;;;;3.03;0.75;;;11.80;99.90;;;;;;4966737;28;20034;-64
2022/11/17 10:23:13;;;;;;;2.50;0.52;;;11.80;99.90;;;;;;4961418;28;20041;-65
2022/11/17 10:25:45;;;;;;;3.55;0.60;;;11.90;99.90;;;;;;4943033;28;20073;-64
2022/11/17 10:28:33;;;;;;;1.58;0.68;;;11.90;99.90;;;;;;4964616;28;20603;-64
2022/11/17 10:31:09;;;;;;;2.65;0.73;;;12.00;99.90;;;;;;4959533;28;20023;-65
2022/11/17 10:33:37;;;;;;;4.20;0.50;;;12.00;99.90;;;;;;4947025;28;20038;-64
2022/11/17 10:36:07;;;;;;;3.58;0.85;;;12.00;99.90;;;;;;4944748;28;20100;-64
2022/11/17 10:38:32;;;;;;;2.95;0.70;;;12.00;99.90;;;;;;4959455;28;20117;-63
2022/11/17 10:41:01;;;;;;;1.83;0.60;;;12.10;99.90;;;;;;4964225;28;20073;-64
2022/11/17 10:43:33;;;;;;;2.15;0.60;;;12.20;99.90;;;;;;4944965;28;20124;-64
2022/11/17 10:46:15;;;;;;;28.27;19.60;;;12.30;99.90;;;;;;4962921;28;20035;-63
2022/11/17 10:48:55;;;;;;;4.07;0.90;;;12.40;99.90;;;;;;4958259;28;20042;-64
2022/11/17 10:51:23;;;;;;;7.38;1.17;;;12.40;99.90;;;;;;4969532;28;20038;-64
2022/11/17 10:54:05;;;;;;;1.52;0.57;;;12.50;99.90;;;;;;4965447;28;20039;-64
2022/11/17 10:56:38;;;;;;;2.08;0.70;;;12.40;99.90;;;;;;4942125;28;20047;-64
2022/11/17 10:59:23;;;;;;;4.15;0.85;;;12.30;99.90;;;;;;4960528;28;20038;-64
2022/11/17 11:01:51;;;;;;;2.90;0.65;;;12.20;99.90;;;;;;4957189;28;20107;-64
2022/11/17 11:04:28;;;;;;;1.85;0.57;;;12.20;99.90;;;;;;4957890;28;20117;-65
2022/11/17 11:07:12;;;;;;;3.60;0.60;;;12.20;99.90;;;;;;4956057;28;20070;-64
2022/11/17 11:10:04;;;;;;;2.45;0.57;;;12.10;99.90;;;;;;4939841;28;20186;-65
2022/11/17 11:12:43;;;;;;;3.30;0.73;;;12.10;99.90;;;;;;4925656;28;20032;-65
2022/11/17 11:15:17;;;;;;;4.05;0.65;;;12.10;99.90;;;;;;4940660;28;20392;-63
2022/11/17 11:17:43;;;;;;;1.73;0.60;;;12.10;99.90;;;;;;4940886;28;20113;-64
2022/11/17 11:20:16;;;;;;;3.10;0.50;;;12.10;99.90;;;;;;4943796;28;20802;-65
2022/11/17 11:23:19;;;;;;;3.13;0.52;;;12.10;99.90;;;;;;4949751;28;20035;-64
2022/11/17 11:25:51;;;;;;;4.70;0.80;;;12.10;99.90;;;;;;4933706;28;20570;-64
2022/11/17 11:28:23;;;;;;;3.20;0.50;;;12.20;99.90;;;;;;4961497;28;20050;-64
2022/11/17 11:31:08;;;;;;;2.45;0.60;;;12.10;99.90;;;;;;4964892;28;20645;-64
2022/11/17 11:34:09;;;;;;;3.70;0.60;;;12.20;99.90;;;;;;4961939;28;20450;-64
2022/11/17 11:36:53;;;;;;;1.85;0.70;;;12.20;99.90;;;;;;4918797;28;20503;-64
2022/11/17 11:39:49;;;;;;;1.45;0.57;;;12.30;99.90;;;;;;4950210;28;20716;-64
2022/11/17 11:42:17;;;;;;;3.17;0.70;;;12.30;99.90;;;;;;4948580;28;20019;-65
2022/11/17 11:45:03;;;;;;;4.22;0.70;;;12.40;99.90;;;;;;4960817;28;20494;-65
2022/11/17 11:47:50;;;;;;;3.25;0.63;;;12.30;99.90;;;;;;4968494;28;20613;-64
2022/11/17 11:50:23;;;;;;;3.17;0.85;;;12.30;99.90;;;;;;4959658;28;20120;-64
2022/11/17 11:52:59;;;;;;;3.28;0.65;;;12.20;99.90;;;;;;4967994;28;20328;-64
2022/11/17 11:55:35;;;;;;;5.53;0.85;;;12.20;99.90;;;;;;4935827;28;20039;-65
2022/11/17 11:58:22;;;;;;;4.28;0.93;;;12.10;99.90;;;;;;4933401;28;20123;-64
2022/11/17 12:01:03;;;;;;;1.92;0.75;;;12.10;99.90;;;;;;4941140;28;20035;-65
2022/11/17 12:03:35;;;;;;;4.05;0.80;;;12.10;99.90;;;;;;4933887;28;21022;-65
2022/11/17 12:06:40;;;;;;;3.80;0.60;;;12.00;99.90;;;;;;4934812;28;20035;-64
2022/11/17 12:09:39;;;;;;;3.55;0.75;;;12.00;99.90;;;;;;4932217;28;20043;-65
2022/11/17 12:12:12;;;;;;;2.38;0.82;;;12.10;99.90;;;;;;4938877;28;20055;-65
2022/11/17 12:14:38;;;;;;;2.30;0.70;;;12.10;99.90;;;;;;4936938;28;20131;-64
2022/11/17 12:17:22;;;;;;;1.40;0.45;;;12.10;99.90;;;;;;4941519;28;20046;-65
2022/11/17 12:19:53;;;;;;;;;;;12.10;99.90;;;;;;4939241;28;20052;-64
2022/11/17 12:22:28;;;;;;;4.35;0.80;;;12.10;99.90;;;;;;4935129;28;19914;-64
2022/11/17 12:24:58;;;;;;;3.05;0.60;;;12.10;99.90;;;;;;4942362;28;20773;-64
2022/11/17 12:27:34;;;;;;;6.40;0.95;;;12.10;99.90;;;;;;4944496;28;20483;-64
2022/11/17 12:30:23;;;;;;;3.80;0.68;;;12.00;99.90;;;;;;4941021;28;20051;-65
2022/11/17 12:32:53;;;;;;;1.98;0.73;;;12.00;99.90;;;;;;4941185;28;20043;-65
2022/11/17 12:35:36;;;;;;;3.30;0.85;;;12.00;99.90;;;;;;4944149;28;20035;-65
2022/11/17 12:38:16;;;;;;;4.05;0.93;;;12.10;99.90;;;;;;4938220;28;20078;-66
2022/11/17 12:40:49;;;;;;;4.35;0.80;;;12.20;99.90;;;;;;4945845;28;20031;-64
2022/11/17 12:43:15;;;;;;;2.55;0.70;;;12.20;99.90;;;;;;4935568;28;20038;-64
2022/11/17 12:45:58;;;;;;;3.58;0.93;;;12.20;99.90;;;;;;4942975;28;20035;-64
2022/11/17 12:48:25;;;;;;;3.72;0.90;;;12.20;99.90;;;;;;4933488;28;20093;-65
2022/11/17 12:51:07;;;;;;;4.45;0.85;;;12.20;99.90;;;;;;4940875;28;20039;-65
2022/11/17 12:53:36;;;;;;;3.58;0.75;;;12.10;99.90;;;;;;4944428;28;20043;-65
2022/11/17 12:56:09;;;;;;;3.00;0.90;;;12.10;99.90;;;;;;4945777;28;20123;-64
2022/11/17 12:58:53;;;;;;;3.30;0.90;;;12.10;99.90;;;;;;4942322;28;20579;-64
2022/11/17 13:01:47;;;;;;;5.82;0.90;;;12.10;99.90;;;;;;4935746;28;20040;-65
2022/11/17 13:04:19;;;;;;;2.60;0.60;;;12.10;99.90;;;;;;4939386;28;20138;-65
2022/11/17 13:07:00;;;;;;;3.90;0.73;;;12.20;99.90;;;;;;4941046;28;20538;-65
2022/11/17 13:09:28;;;;;;;1.40;0.70;;;12.10;99.90;;;;;;4935052;28;20102;-64
2022/11/17 13:12:08;;;;;;;3.20;0.90;;;12.20;99.90;;;;;;4958405;28;20110;-65
2022/11/17 13:14:49;;;;;;;7.05;0.90;;;12.20;99.90;;;;;;4939278;28;20578;-64
2022/11/17 13:17:15;;;;;;;2.85;0.95;;;12.30;99.90;;;;;;4938973;28;20047;-65
2022/11/17 13:19:41;;;;;;;2.08;0.80;;;12.20;99.90;;;;;;4931676;28;20058;-65
2022/11/17 13:22:14;;;;;;;3.83;0.85;;;12.20;99.90;;;;;;4933153;28;20049;-64
2022/11/17 13:24:45;;;;;;;6.03;0.90;;;12.20;99.90;;;;;;4942612;28;20039;-65
2022/11/17 13:27:24;;;;;;;3.97;1.02;;;12.20;99.90;;;;;;4941042;28;20059;-65
2022/11/17 13:29:51;;;;;;;3.00;0.82;;;12.30;99.90;;;;;;4939878;28;20057;-64
2022/11/17 13:32:22;;;;;;;2.75;0.85;;;12.30;99.90;;;;;;4942810;28;20062;-65
2022/11/17 13:34:55;;;;;;;4.10;0.80;;;12.30;99.90;;;;;;4930402;28;20039;-65
2022/11/17 13:37:28;;;;;;;3.33;0.70;;;12.30;99.90;;;;;;4939231;28;20039;-65